Pagrindinis puslapis
METAR-TAF:

METAR-TAF

Oro uostai :

Tlemsenas, Alžyras

platuma: 35-01N, ilguma: 001-28W, Aukštis: 247 m

Dabartinis oras

Ataskaita buvo paskelbta 40 minutes, ne 12:00 UTC
Vėjas 16 kt iš Pietvakarių
Temperatūra 17°C
Drėgmė 39%
Slėgis 1019 hPa
Matomumas 10 km arba daugiau
Mažai debesys ne aukštis 2600 ft
Išsisklaidę debesys ne aukštis 23300 ft

METAR: DAON 251200Z 22016KT 9999 FEW026 SCT233 17/03 Q1019

Laikas: 13:40 (12:40 UTC)

Prognozė

Ataskaita buvo paskelbta 1 valandą ir 40 minutes, ne 11:00 UTC
Prognozė galioja nuo 25 metu 12 UTC su 26 metu 12 UTC
Vėjas 12 kt iš Pietvakarių
Matomumas 10 km arba daugiau
Mažai debesys ne aukštis 2600 ft
Tikimybė 30% :
Laikinai
nuo 25 metu 14 UTC su 25 metu 20 UTC
Mažai debesys ne aukštis 2600 ft, Liūtiniai kamuoliniai debesys.
Su prošvaistėmis ne aukštis 3000 ft
perkūnija, lietus

TAF: DAON 251100Z 2512/2612 22012KT 9999 FEW026 PROB30 TEMPO 2514/2520 -TSRA FEW026CB BKN030

Orai ataskaitas ir orų prognozės (METAR, TAF).

turimą stotys yra geltonos ir raudonos taškus žemėlapyje.

Perkelti pele per norėdami pamatyti stoties vardą.

Tada spustelėkite, norėdami matyti oro stebėjimo ir prognozės.

Norėdami pakeisti žemėlapį: spustelėkite ant žalios mygtukų su juodo kryžiaus žemyn,; žalią mygtuką su brūkšneliu, jei norite nutolinti; arba žalių rodyklių gretimoms žemėlapius.


METAR-TAF: